createdAt,value
2019-03-25T00:00:55.415Z,65.00
2019-03-25T00:03:23.878Z,65.00
2019-03-25T00:05:52.423Z,64.90
2019-03-25T00:08:20.965Z,65.60
2019-03-25T00:10:49.586Z,65.90
2019-03-25T00:13:18.107Z,66.10
2019-03-25T00:15:46.741Z,66.60
2019-03-25T00:18:15.361Z,66.40
2019-03-25T00:20:43.818Z,66.40
2019-03-25T00:23:12.362Z,66.20
2019-03-25T00:25:40.843Z,65.40
2019-03-25T00:28:09.317Z,65.00
2019-03-25T00:30:37.766Z,65.70
2019-03-25T00:33:06.542Z,66.20
2019-03-25T00:35:34.989Z,66.20
2019-03-25T00:38:03.651Z,66.50
2019-03-25T00:40:32.116Z,64.90
2019-03-25T00:43:00.600Z,65.50
2019-03-25T00:45:29.055Z,65.30
2019-03-25T00:47:57.534Z,65.40
2019-03-25T00:50:26.056Z,64.90
2019-03-25T00:52:54.598Z,63.50
2019-03-25T00:55:23.110Z,61.80
2019-03-25T00:57:51.601Z,62.20
2019-03-25T01:00:20.249Z,62.10
2019-03-25T01:02:48.787Z,61.70
2019-03-25T01:05:17.564Z,62.50
2019-03-25T01:07:46.059Z,63.20
2019-03-25T01:10:14.979Z,63.50
2019-03-25T01:12:43.523Z,64.80
2019-03-25T01:15:12.048Z,65.70
2019-03-25T01:17:40.753Z,65.70
2019-03-25T01:20:09.503Z,67.00
2019-03-25T01:22:38.123Z,66.50
2019-03-25T01:25:09.678Z,66.70
2019-03-25T01:27:38.163Z,67.10
2019-03-25T01:30:09.195Z,67.40
2019-03-25T01:32:37.666Z,67.90
2019-03-25T01:35:06.885Z,68.10
2019-03-25T01:37:35.419Z,68.40
2019-03-25T01:40:06.543Z,68.20
2019-03-25T01:42:35.160Z,68.20
2019-03-25T01:45:05.639Z,66.10
2019-03-25T01:47:34.256Z,65.20
2019-03-25T01:50:02.783Z,64.50
2019-03-25T01:52:31.246Z,64.00
2019-03-25T01:54:59.714Z,64.40
2019-03-25T01:57:28.241Z,64.70
2019-03-25T01:59:56.777Z,63.60
2019-03-25T02:02:25.220Z,62.80
2019-03-25T02:04:53.682Z,62.20
2019-03-25T02:07:22.333Z,62.30
2019-03-25T02:09:50.808Z,62.30
2019-03-25T02:12:19.323Z,62.80
2019-03-25T02:14:47.819Z,63.30
2019-03-25T02:17:16.425Z,63.90
2019-03-25T02:19:44.891Z,64.30
2019-03-25T02:22:13.331Z,64.10
2019-03-25T02:24:41.818Z,63.00
2019-03-25T02:27:10.336Z,62.70
2019-03-25T02:29:38.826Z,61.90
2019-03-25T02:32:07.372Z,60.90
2019-03-25T02:34:35.836Z,60.00
2019-03-25T02:37:04.397Z,60.00
2019-03-25T02:39:32.828Z,59.40
2019-03-25T02:42:01.311Z,58.90
2019-03-25T02:44:29.787Z,59.30
2019-03-25T02:46:58.308Z,59.60
2019-03-25T02:49:26.764Z,59.50
2019-03-25T02:51:55.227Z,59.70
2019-03-25T02:54:23.679Z,59.90
2019-03-25T02:56:52.208Z,60.10
2019-03-25T02:59:20.660Z,60.30
2019-03-25T03:01:49.291Z,61.00
2019-03-25T03:04:17.727Z,61.20
2019-03-25T03:06:46.191Z,61.60
2019-03-25T03:09:14.675Z,62.50
2019-03-25T03:11:43.149Z,62.70
2019-03-25T03:14:15.060Z,62.90
2019-03-25T03:16:41.803Z,63.00
2019-03-25T03:19:10.316Z,63.20
2019-03-25T03:21:38.786Z,63.00
2019-03-25T03:24:07.234Z,63.00
2019-03-25T03:26:35.721Z,63.10
2019-03-25T03:29:04.269Z,63.20
2019-03-25T03:31:32.718Z,63.40
2019-03-25T03:34:01.409Z,63.50
2019-03-25T03:36:29.849Z,64.00
2019-03-25T03:38:58.400Z,64.60
2019-03-25T03:41:26.911Z,65.10
2019-03-25T03:43:55.455Z,65.30
2019-03-25T03:46:23.964Z,66.00
2019-03-25T03:48:52.515Z,67.10
2019-03-25T03:51:21.383Z,67.50
2019-03-25T03:53:50.499Z,67.90
2019-03-25T03:56:19.102Z,68.50
2019-03-25T03:58:47.847Z,69.10
2019-03-25T04:01:16.371Z,69.90
2019-03-25T04:03:44.909Z,70.50
2019-03-25T04:06:13.347Z,71.00
2019-03-25T04:08:41.797Z,71.40
2019-03-25T04:11:10.333Z,71.30
2019-03-25T04:13:38.883Z,71.80
2019-03-25T04:16:07.436Z,72.10
2019-03-25T04:18:35.924Z,72.10
2019-03-25T04:21:04.419Z,72.20
2019-03-25T04:23:32.875Z,72.20
2019-03-25T04:26:01.342Z,72.30
2019-03-25T04:28:29.788Z,72.50
2019-03-25T04:30:58.386Z,72.30
2019-03-25T04:33:26.826Z,71.90
2019-03-25T04:35:55.302Z,72.40
2019-03-25T04:38:23.761Z,72.40
2019-03-25T04:40:52.295Z,72.40
2019-03-25T04:43:20.748Z,72.50
2019-03-25T04:45:49.230Z,72.20
2019-03-25T04:48:17.659Z,72.10
2019-03-25T04:50:46.424Z,72.40
2019-03-25T04:53:14.877Z,73.60
2019-03-25T04:55:43.451Z,72.50
2019-03-25T04:58:11.966Z,72.70
2019-03-25T05:00:40.571Z,72.50
2019-03-25T05:03:09.189Z,72.50
2019-03-25T05:05:37.708Z,72.20
2019-03-25T05:08:06.337Z,72.20
2019-03-25T05:10:34.890Z,72.00
2019-03-25T05:13:03.397Z,72.20
2019-03-25T05:15:31.870Z,72.60
2019-03-25T05:18:00.325Z,73.10
2019-03-25T05:20:28.903Z,72.50
2019-03-25T05:22:57.431Z,72.60
2019-03-25T05:25:25.876Z,72.60
2019-03-25T05:27:54.848Z,72.70
2019-03-25T05:30:23.288Z,73.00
2019-03-25T05:32:51.771Z,73.40
2019-03-25T05:35:20.218Z,73.80
2019-03-25T05:37:48.675Z,74.00
2019-03-25T05:40:17.151Z,74.20
2019-03-25T05:42:45.707Z,74.40
2019-03-25T05:45:14.271Z,74.50
2019-03-25T05:47:42.814Z,74.10
2019-03-25T05:50:11.413Z,73.30
2019-03-25T05:52:39.886Z,73.10
2019-03-25T05:55:08.516Z,73.90
2019-03-25T05:57:37.050Z,73.90
2019-03-25T06:00:06.466Z,74.50
2019-03-25T06:02:35.252Z,72.80
2019-03-25T06:05:04.368Z,72.10
2019-03-25T06:07:32.891Z,72.30
2019-03-25T06:10:01.355Z,72.60
2019-03-25T06:12:29.824Z,71.50
2019-03-25T06:14:58.340Z,70.50
2019-03-25T06:17:26.858Z,70.20
2019-03-25T06:19:55.420Z,69.80
2019-03-25T06:22:23.866Z,69.60
2019-03-25T06:24:52.333Z,69.40
2019-03-25T06:27:20.778Z,69.60
2019-03-25T06:29:49.259Z,69.60
2019-03-25T06:32:17.682Z,70.00
2019-03-25T06:34:46.213Z,70.20
2019-03-25T06:37:14.743Z,70.30
2019-03-25T06:39:43.216Z,70.40
2019-03-25T06:42:11.685Z,70.20
2019-03-25T06:44:40.268Z,69.50
2019-03-25T06:47:08.706Z,69.20
2019-03-25T06:49:37.174Z,68.70
2019-03-25T06:52:05.632Z,68.70
2019-03-25T06:54:34.241Z,68.30
2019-03-25T06:57:02.786Z,67.60
2019-03-25T06:59:31.448Z,66.60
2019-03-25T07:01:59.955Z,65.40
2019-03-25T07:04:28.432Z,65.00
2019-03-25T07:06:57.316Z,64.70
2019-03-25T07:09:25.789Z,64.90
2019-03-25T07:11:54.480Z,65.60
2019-03-25T07:14:23.004Z,65.80
2019-03-25T07:16:51.497Z,65.80
2019-03-25T07:19:20.080Z,65.90
2019-03-25T07:21:48.624Z,66.20
2019-03-25T07:24:17.209Z,66.40
2019-03-25T07:26:45.687Z,66.80
2019-03-25T07:29:14.213Z,67.00
2019-03-25T07:31:42.842Z,66.90
2019-03-25T07:34:11.303Z,66.50
2019-03-25T07:36:39.787Z,66.00
2019-03-25T07:39:08.962Z,63.90
2019-03-25T07:41:37.582Z,64.30
2019-03-25T07:44:08.646Z,64.30
2019-03-25T07:46:36.417Z,63.60
2019-03-25T07:49:05.031Z,62.00
2019-03-25T07:51:33.530Z,61.30
2019-03-25T07:54:02.058Z,61.00
2019-03-25T07:56:30.603Z,61.40
2019-03-25T07:58:59.185Z,61.30
2019-03-25T08:01:27.780Z,59.90
2019-03-25T08:03:56.333Z,59.70
2019-03-25T08:06:24.867Z,60.20
2019-03-25T08:09:03.341Z,59.70
2019-03-25T08:11:23.748Z,59.80
2019-03-25T08:13:52.253Z,60.30
2019-03-25T08:16:20.827Z,59.90
2019-03-25T08:18:49.362Z,60.10
2019-03-25T08:21:17.878Z,59.90
2019-03-25T08:23:46.344Z,59.10
2019-03-25T08:26:14.808Z,59.40
2019-03-25T08:28:43.350Z,59.60
2019-03-25T08:31:11.805Z,59.40
2019-03-25T08:33:40.275Z,59.00
2019-03-25T08:36:08.807Z,59.20
2019-03-25T08:38:37.325Z,58.90
2019-03-25T08:41:05.907Z,58.60
2019-03-25T08:43:34.373Z,58.40
2019-03-25T08:46:02.899Z,58.60
2019-03-25T08:48:31.456Z,58.70
2019-03-25T08:51:00.001Z,58.80
2019-03-25T08:53:28.526Z,58.80
2019-03-25T08:55:57.089Z,58.80
2019-03-25T08:58:25.705Z,58.70
2019-03-25T09:00:54.270Z,58.50
2019-03-25T09:03:22.795Z,58.30
2019-03-25T09:05:51.302Z,58.30
2019-03-25T09:08:19.812Z,58.40
2019-03-25T09:10:48.471Z,58.70
2019-03-25T09:13:17.007Z,58.90
2019-03-25T09:15:45.558Z,59.10
2019-03-25T09:18:14.067Z,59.40
2019-03-25T09:20:47.094Z,59.20
2019-03-25T09:23:15.632Z,59.40
2019-03-25T09:25:44.142Z,59.30
2019-03-25T09:28:23.780Z,59.00
2019-03-25T09:30:56.230Z,59.40
2019-03-25T09:33:24.754Z,58.80
2019-03-25T09:35:53.471Z,58.70
2019-03-25T09:38:22.147Z,58.60
2019-03-25T09:40:50.626Z,58.40
2019-03-25T09:43:19.170Z,58.70
2019-03-25T09:45:47.773Z,57.20
2019-03-25T09:48:16.298Z,57.10
2019-03-25T09:50:44.861Z,56.40
2019-03-25T09:53:13.372Z,55.80
2019-03-25T09:55:41.910Z,54.30
2019-03-25T09:58:10.420Z,54.60
2019-03-25T10:00:38.902Z,53.60
2019-03-25T10:03:07.611Z,53.00
2019-03-25T10:05:36.195Z,52.60
2019-03-25T10:08:04.748Z,52.60
2019-03-25T10:10:33.767Z,51.70
2019-03-25T10:13:02.252Z,51.70
2019-03-25T10:15:30.687Z,52.00
2019-03-25T10:17:59.383Z,52.30
2019-03-25T10:20:27.828Z,51.90
2019-03-25T10:22:56.386Z,50.00
2019-03-25T10:25:25.133Z,51.40
2019-03-25T10:27:53.618Z,51.50
2019-03-25T10:30:23.935Z,50.80
2019-03-25T10:32:52.406Z,51.30
2019-03-25T10:35:21.021Z,51.10
2019-03-25T10:37:49.582Z,51.00
2019-03-25T10:40:18.166Z,51.20
2019-03-25T10:42:46.645Z,50.50
2019-03-25T10:45:15.557Z,49.70
2019-03-25T10:47:44.202Z,48.70
2019-03-25T10:50:13.854Z,49.30
2019-03-25T10:52:42.328Z,48.50
2019-03-25T10:55:10.989Z,47.30
2019-03-25T10:57:39.418Z,46.40
2019-03-25T11:00:10.618Z,43.70
2019-03-25T11:02:38.339Z,42.90
2019-03-25T11:05:07.767Z,43.30
2019-03-25T11:07:36.544Z,42.60
2019-03-25T11:10:08.227Z,42.70
2019-03-25T11:12:36.730Z,44.10
2019-03-25T11:15:09.202Z,43.90
2019-03-25T11:17:38.002Z,43.00
2019-03-25T11:20:08.207Z,42.70
2019-03-25T11:22:36.787Z,42.10
2019-03-25T11:25:08.134Z,42.60
2019-03-25T11:27:36.643Z,42.70
2019-03-25T11:30:11.070Z,43.40
2019-03-25T11:32:39.688Z,43.80
2019-03-25T11:35:09.915Z,43.60
2019-03-25T11:37:38.447Z,42.10
2019-03-25T11:40:11.422Z,41.60
2019-03-25T11:42:39.944Z,39.60
2019-03-25T11:45:09.940Z,40.30
2019-03-25T11:47:38.453Z,42.20
2019-03-25T11:50:08.205Z,42.40
2019-03-25T11:52:36.700Z,43.70
2019-03-25T11:55:06.938Z,47.60
2019-03-25T11:57:35.373Z,53.70
2019-03-25T12:00:07.958Z,55.20
2019-03-25T12:02:36.666Z,56.20
2019-03-25T12:05:06.731Z,58.20
2019-03-25T12:07:35.206Z,54.50
2019-03-25T12:10:05.712Z,55.50
2019-03-25T12:12:34.324Z,54.70
2019-03-25T12:15:02.830Z,51.70
2019-03-25T12:17:31.520Z,50.90
2019-03-25T12:20:00.117Z,50.20
2019-03-25T12:22:28.714Z,47.10
2019-03-25T12:24:57.238Z,46.60
2019-03-25T12:27:25.883Z,46.50
2019-03-25T12:29:54.459Z,40.30
2019-03-25T12:32:23.079Z,42.40
2019-03-25T12:34:51.520Z,43.30
2019-03-25T12:37:20.088Z,43.60
2019-03-25T12:39:48.635Z,43.80
2019-03-25T12:42:17.302Z,43.30
2019-03-25T12:44:45.759Z,44.30
2019-03-25T12:47:14.311Z,43.70
2019-03-25T12:49:42.899Z,44.20
2019-03-25T12:52:11.372Z,41.00
2019-03-25T12:54:40.058Z,40.00
2019-03-25T12:57:08.573Z,37.20
2019-03-25T12:59:41.472Z,35.50
2019-03-25T13:02:07.306Z,36.00
2019-03-25T13:04:36.217Z,36.00
2019-03-25T13:07:04.815Z,36.50
2019-03-25T13:09:33.465Z,34.10
2019-03-25T13:12:02.031Z,33.50
2019-03-25T13:14:30.511Z,34.10
2019-03-25T13:16:58.950Z,33.80
2019-03-25T13:19:27.523Z,33.30
2019-03-25T13:21:56.034Z,34.90
2019-03-25T13:24:24.607Z,34.80
2019-03-25T13:26:53.044Z,35.40
2019-03-25T13:29:21.642Z,36.00
2019-03-25T13:31:50.091Z,37.00
2019-03-25T13:34:20.783Z,36.80
2019-03-25T13:36:49.307Z,36.40
2019-03-25T13:39:19.300Z,37.10
2019-03-25T13:41:47.812Z,38.30
2019-03-25T13:44:16.284Z,37.70
2019-03-25T13:46:44.729Z,38.20
2019-03-25T13:49:13.201Z,36.90
2019-03-25T13:51:41.749Z,36.90
2019-03-25T13:54:10.191Z,36.10
2019-03-25T13:56:38.739Z,35.80
2019-03-25T13:59:07.242Z,35.30
2019-03-25T14:01:35.715Z,36.20
2019-03-25T14:04:04.225Z,35.80
2019-03-25T14:06:32.712Z,37.20
2019-03-25T14:09:01.180Z,42.90
2019-03-25T14:11:29.725Z,47.70
2019-03-25T14:14:00.152Z,50.90
2019-03-25T14:16:28.468Z,52.00
2019-03-25T14:18:56.900Z,52.80
2019-03-25T14:21:25.517Z,53.40
2019-03-25T14:23:53.959Z,54.10
2019-03-25T14:26:22.448Z,54.40
2019-03-25T14:28:50.870Z,54.70
2019-03-25T14:31:19.414Z,55.00
2019-03-25T14:33:47.847Z,55.20
2019-03-25T14:36:16.337Z,54.80
2019-03-25T14:38:44.792Z,54.10
2019-03-25T14:41:13.281Z,53.80
2019-03-25T14:43:41.839Z,54.20
2019-03-25T14:46:10.337Z,53.70
2019-03-25T14:48:38.816Z,51.20
2019-03-25T14:51:07.455Z,50.90
2019-03-25T14:53:44.776Z,50.30
2019-03-25T14:56:06.170Z,50.10
2019-03-25T14:58:34.634Z,51.80
2019-03-25T15:01:03.199Z,52.90
2019-03-25T15:03:31.779Z,53.70
2019-03-25T15:06:00.298Z,54.70
2019-03-25T15:08:28.786Z,55.90
2019-03-25T15:10:57.491Z,58.00
2019-03-25T15:13:26.171Z,59.70
2019-03-25T15:15:54.776Z,62.40
2019-03-25T15:18:23.321Z,64.60
2019-03-25T15:20:51.977Z,66.00
2019-03-25T15:23:20.575Z,69.40
2019-03-25T15:25:49.007Z,69.00
2019-03-25T15:28:17.531Z,71.60
2019-03-25T15:30:46.205Z,73.00
2019-03-25T15:33:14.654Z,72.50
2019-03-25T15:35:43.099Z,71.20
2019-03-25T15:38:11.708Z,70.10
2019-03-25T15:40:40.233Z,72.00
2019-03-25T15:43:08.721Z,71.50
2019-03-25T15:45:37.172Z,71.50
2019-03-25T15:48:05.852Z,68.80
2019-03-25T15:50:34.490Z,68.40
2019-03-25T15:53:03.004Z,68.40
2019-03-25T15:55:31.591Z,68.80
2019-03-25T15:58:00.231Z,65.40
2019-03-25T16:00:28.713Z,64.40
2019-03-25T16:02:57.176Z,62.80
2019-03-25T16:05:25.728Z,61.80
2019-03-25T16:07:54.251Z,58.50
2019-03-25T16:10:22.878Z,58.30
2019-03-25T16:12:51.419Z,57.80
2019-03-25T16:15:37.593Z,59.00
2019-03-25T16:18:07.786Z,59.40
2019-03-25T16:20:36.791Z,57.70
2019-03-25T16:23:05.672Z,58.70
2019-03-25T16:25:34.331Z,59.70
2019-03-25T16:28:02.897Z,59.60
2019-03-25T16:30:31.391Z,60.10
2019-03-25T16:33:00.002Z,61.20
2019-03-25T16:35:28.721Z,59.80
2019-03-25T16:37:57.167Z,59.50
2019-03-25T16:40:25.846Z,59.50
2019-03-25T16:42:54.287Z,58.80
2019-03-25T16:45:22.859Z,58.80
2019-03-25T16:47:51.431Z,58.60
2019-03-25T16:50:19.984Z,59.40
2019-03-25T16:52:48.481Z,59.70
2019-03-25T16:55:17.020Z,59.20
2019-03-25T16:57:45.567Z,60.20
2019-03-25T17:00:14.304Z,61.10
2019-03-25T17:02:42.907Z,62.10
2019-03-25T17:05:11.525Z,61.00
2019-03-25T17:07:40.030Z,61.90
2019-03-25T17:10:08.723Z,62.20
2019-03-25T17:12:37.477Z,62.80
2019-03-25T17:15:07.538Z,62.90
2019-03-25T17:17:36.334Z,63.10
2019-03-25T17:20:06.407Z,63.50
2019-03-25T17:22:34.884Z,63.90
2019-03-25T17:25:03.982Z,64.10
2019-03-25T17:27:32.466Z,63.80
2019-03-25T17:30:00.886Z,63.60
2019-03-25T17:32:29.358Z,64.20
2019-03-25T17:34:57.871Z,63.70
2019-03-25T17:37:26.395Z,63.70
2019-03-25T17:39:54.830Z,63.60
2019-03-25T17:42:23.324Z,63.30
2019-03-25T17:44:51.873Z,63.20
2019-03-25T17:47:20.325Z,63.00
2019-03-25T17:49:48.802Z,63.20
2019-03-25T17:52:17.361Z,63.60
2019-03-25T17:54:45.898Z,63.70
2019-03-25T17:57:14.462Z,63.60
2019-03-25T17:59:42.932Z,62.60
2019-03-25T18:02:12.969Z,62.50
2019-03-25T18:04:41.420Z,64.30
2019-03-25T18:07:10.021Z,65.60
2019-03-25T18:09:38.581Z,66.20
2019-03-25T18:12:07.083Z,66.70
2019-03-25T18:14:35.749Z,65.70
2019-03-25T18:17:04.511Z,66.80
2019-03-25T18:19:33.028Z,67.30
2019-03-25T18:22:01.674Z,67.30
2019-03-25T18:24:30.781Z,67.10
2019-03-25T18:26:59.364Z,66.40
2019-03-25T18:29:27.894Z,66.50
2019-03-25T18:31:56.502Z,66.90
2019-03-25T18:34:25.103Z,67.00
2019-03-25T18:36:53.638Z,66.20
2019-03-25T18:39:22.354Z,66.60
2019-03-25T18:41:51.069Z,67.50
2019-03-25T18:46:47.831Z,69.10
2019-03-25T18:49:16.744Z,67.90
2019-03-25T18:51:45.261Z,69.80
2019-03-25T18:54:14.226Z,69.60
2019-03-25T18:56:42.817Z,70.10
2019-03-25T18:59:11.403Z,71.30
2019-03-25T19:01:40.193Z,73.00
2019-03-25T19:04:08.741Z,75.10
2019-03-25T19:06:37.413Z,76.30
2019-03-25T19:09:07.729Z,76.70
2019-03-25T19:11:36.378Z,77.30
2019-03-25T19:14:05.032Z,78.40
2019-03-25T19:16:33.702Z,79.00
2019-03-25T19:19:02.320Z,79.90
2019-03-25T19:21:30.796Z,81.30
2019-03-25T19:23:59.460Z,80.00
2019-03-25T19:26:27.955Z,78.40
2019-03-25T19:28:56.515Z,80.10
2019-03-25T19:31:25.034Z,81.60
2019-03-25T19:33:53.596Z,83.20
2019-03-25T19:36:22.324Z,81.70
2019-03-25T19:38:50.888Z,81.30
2019-03-25T19:41:31.510Z,80.20
2019-03-25T19:43:49.648Z,81.40
2019-03-25T19:46:18.351Z,80.90
2019-03-25T19:48:46.897Z,80.30
2019-03-25T19:51:15.453Z,81.70
2019-03-25T19:53:44.070Z,82.80
2019-03-25T19:56:12.770Z,82.80
2019-03-25T19:58:41.319Z,83.30
2019-03-25T20:01:09.876Z,83.10
2019-03-25T20:03:38.757Z,83.80
2019-03-25T20:06:07.406Z,84.50
2019-03-25T20:08:37.877Z,84.80
2019-03-25T20:11:06.550Z,85.50
2019-03-25T20:13:35.135Z,86.10
2019-03-25T20:16:03.816Z,87.40
2019-03-25T20:18:32.344Z,86.50
2019-03-25T20:21:00.886Z,86.50
2019-03-25T20:23:29.386Z,86.90
2019-03-25T20:25:58.080Z,86.50
2019-03-25T20:28:26.680Z,86.50
2019-03-25T20:30:55.288Z,86.50
2019-03-25T20:33:23.844Z,85.90
2019-03-25T20:35:52.432Z,85.10
2019-03-25T20:38:20.984Z,84.20
2019-03-25T20:40:49.598Z,85.10
2019-03-25T20:43:18.233Z,85.20
2019-03-25T20:45:46.782Z,85.20
2019-03-25T20:48:15.397Z,86.10
2019-03-25T20:50:43.972Z,86.20
2019-03-25T20:53:12.567Z,86.00
2019-03-25T20:55:41.169Z,86.30
2019-03-25T20:58:09.735Z,86.40
2019-03-25T21:00:52.175Z,86.40
2019-03-25T21:03:20.705Z,86.50
2019-03-25T21:05:49.256Z,86.00
2019-03-25T21:08:17.892Z,85.70
2019-03-25T21:10:46.356Z,86.60
2019-03-25T21:13:15.010Z,86.00
2019-03-25T21:15:43.676Z,85.90
2019-03-25T21:18:12.147Z,84.60
2019-03-25T21:20:40.817Z,84.20
2019-03-25T21:23:09.345Z,84.50
2019-03-25T21:25:39.371Z,85.20
2019-03-25T21:28:07.846Z,84.80
2019-03-25T21:30:47.492Z,84.30
2019-03-25T21:33:06.923Z,85.20
2019-03-25T21:35:35.536Z,85.30
2019-03-25T21:38:04.267Z,85.10
2019-03-25T21:40:33.062Z,85.60
2019-03-25T21:43:01.633Z,86.00
2019-03-25T21:45:30.138Z,85.90
2019-03-25T21:47:58.811Z,86.40
2019-03-25T21:50:27.416Z,86.70
2019-03-25T21:52:56.076Z,86.90
2019-03-25T21:55:24.593Z,87.20
2019-03-25T21:57:53.117Z,87.10
2019-03-25T22:00:21.855Z,87.10
2019-03-25T22:02:50.383Z,86.30
2019-03-25T22:05:18.949Z,86.10
2019-03-25T22:07:49.672Z,86.90
2019-03-25T22:10:18.194Z,86.00
2019-03-25T22:12:46.847Z,85.70
2019-03-25T22:15:15.457Z,85.90
2019-03-25T22:17:43.885Z,86.40
2019-03-25T22:20:13.239Z,86.10
2019-03-25T22:22:41.783Z,86.00
2019-03-25T22:25:10.360Z,84.50
2019-03-25T22:27:39.013Z,85.70
2019-03-25T22:30:08.161Z,85.20
2019-03-25T22:32:36.924Z,85.70
2019-03-25T22:35:06.860Z,85.60
2019-03-25T22:37:35.421Z,86.60
2019-03-25T22:40:06.090Z,85.50
2019-03-25T22:42:34.735Z,85.30
2019-03-25T22:45:04.778Z,85.60
2019-03-25T22:47:33.261Z,85.20
2019-03-25T22:50:01.721Z,84.70
2019-03-25T22:52:30.249Z,84.40
2019-03-25T22:54:59.006Z,84.30
2019-03-25T22:57:27.457Z,85.10
2019-03-25T22:59:55.960Z,85.50
2019-03-25T23:02:24.546Z,85.10
2019-03-25T23:04:52.998Z,84.40
2019-03-25T23:07:21.485Z,83.80
2019-03-25T23:09:50.007Z,83.60
2019-03-25T23:12:18.610Z,83.30
2019-03-25T23:14:47.069Z,83.40
2019-03-25T23:17:15.528Z,83.90
2019-03-25T23:19:44.076Z,84.90
2019-03-25T23:22:13.936Z,84.90
2019-03-25T23:24:42.398Z,83.60
2019-03-25T23:27:10.894Z,83.00
2019-03-25T23:29:39.385Z,84.90
2019-03-25T23:32:07.840Z,85.20
2019-03-25T23:34:36.367Z,84.40
2019-03-25T23:37:04.903Z,84.60
2019-03-25T23:39:33.367Z,84.10
2019-03-25T23:42:01.803Z,84.50
2019-03-25T23:44:30.260Z,83.80
2019-03-25T23:46:58.707Z,83.90
2019-03-25T23:49:27.233Z,84.40
2019-03-25T23:51:55.689Z,85.10
2019-03-25T23:54:24.168Z,84.70
2019-03-25T23:56:52.684Z,84.70
2019-03-25T23:59:21.143Z,85.40
